createdAt,value
2023-04-23T00:01:57.315Z,100302.06
2023-04-23T00:04:26.022Z,100305.66
2023-04-23T00:06:53.025Z,100300.63
2023-04-23T00:09:22.605Z,100308.41
2023-04-23T00:11:49.329Z,100306.91
2023-04-23T00:14:16.037Z,100304.06
2023-04-23T00:16:42.940Z,100306.34
2023-04-23T00:19:10.673Z,100307.53
2023-04-23T00:21:37.213Z,100306.69
2023-04-23T00:24:03.782Z,100310.25
2023-04-23T00:26:30.259Z,100312.88
2023-04-23T00:28:56.771Z,100309.75
2023-04-23T00:31:23.506Z,100308.03
2023-04-23T00:33:50.248Z,100312.75
2023-04-23T00:36:16.799Z,100321.34
2023-04-23T00:38:43.309Z,100318.66
2023-04-23T00:41:10.155Z,100318.66
2023-04-23T00:43:37.142Z,100311.66
2023-04-23T00:46:03.976Z,100307.13
2023-04-23T00:48:30.696Z,100320.81
2023-04-23T00:51:03.346Z,100315.56
2023-04-23T00:53:29.934Z,100323.84
2023-04-23T00:55:57.280Z,100318.66
2023-04-23T00:58:23.894Z,100320.63
2023-04-23T01:00:50.559Z,100316.97
2023-04-23T01:03:17.299Z,100323.22
2023-04-23T01:05:44.111Z,100329.97
2023-04-23T01:08:15.572Z,100330.06
2023-04-23T01:10:45.801Z,100320.81
2023-04-23T01:13:13.376Z,100327.38
2023-04-23T01:15:40.000Z,100323.22
2023-04-23T01:18:06.654Z,100322.16
2023-04-23T01:20:36.010Z,100316.78
2023-04-23T01:23:05.828Z,100316.59
2023-04-23T01:25:32.499Z,100323.91
2023-04-23T01:27:59.382Z,100325.94
2023-04-23T01:30:27.284Z,100321.19
2023-04-23T01:32:57.678Z,100318.97
2023-04-23T01:35:25.232Z,100315.63
2023-04-23T01:37:53.630Z,100322.50
2023-04-23T01:40:21.332Z,100319.72
2023-04-23T01:42:48.320Z,100327.91
2023-04-23T01:45:14.850Z,100325.72
2023-04-23T01:47:42.005Z,100320.25
2023-04-23T01:50:09.652Z,100327.25
2023-04-23T01:52:36.311Z,100333.56
2023-04-23T01:55:03.240Z,100325.63
2023-04-23T01:57:29.835Z,100327.03
2023-04-23T02:00:05.222Z,100323.91
2023-04-23T02:02:31.786Z,100326.59
2023-04-23T02:05:00.721Z,100328.97
2023-04-23T02:07:27.309Z,100323.78
2023-04-23T02:09:53.829Z,100325.53
2023-04-23T02:12:20.309Z,100327.25
2023-04-23T02:14:46.846Z,100330.03
2023-04-23T02:17:13.320Z,100326.59
2023-04-23T02:19:39.790Z,100324.00
2023-04-23T02:22:06.321Z,100334.75
2023-04-23T02:24:33.114Z,100338.53
2023-04-23T02:26:59.628Z,100346.94
2023-04-23T02:29:26.132Z,100341.84
2023-04-23T02:31:52.841Z,100345.84
2023-04-23T02:34:19.458Z,100346.44
2023-04-23T02:36:45.996Z,100348.25
2023-04-23T02:39:12.460Z,100343.22
2023-04-23T02:41:38.902Z,100349.44
2023-04-23T02:44:05.418Z,100360.19
2023-04-23T02:46:32.028Z,100351.56
2023-04-23T02:48:58.629Z,100348.44
2023-04-23T02:51:25.274Z,100353.44
2023-04-23T02:53:51.799Z,100347.88
2023-04-23T02:56:18.272Z,100340.50
2023-04-23T02:58:44.792Z,100346.09
2023-04-23T03:01:11.398Z,100341.50
2023-04-23T03:03:38.215Z,100337.63
2023-04-23T03:06:05.477Z,100346.66
2023-04-23T03:08:32.056Z,100340.53
2023-04-23T03:10:58.552Z,100346.66
2023-04-23T03:13:26.339Z,100344.91
2023-04-23T03:15:53.380Z,100346.66
2023-04-23T03:18:20.667Z,100345.03
2023-04-23T03:20:47.380Z,100343.84
2023-04-23T03:23:13.862Z,100344.97
2023-04-23T03:25:40.394Z,100348.81
2023-04-23T03:28:06.890Z,100349.34
2023-04-23T03:30:33.516Z,100346.19
2023-04-23T03:33:00.479Z,100346.19
2023-04-23T03:35:27.032Z,100349.63
2023-04-23T03:37:53.573Z,100349.53
2023-04-23T03:40:21.162Z,100353.19
2023-04-23T03:42:48.000Z,100354.03
2023-04-23T03:45:15.642Z,100343.50
2023-04-23T03:47:42.658Z,100346.19
2023-04-23T03:50:09.794Z,100350.78
2023-04-23T03:52:36.347Z,100352.69
2023-04-23T03:55:02.897Z,100353.56
2023-04-23T03:57:29.528Z,100360.22
2023-04-23T03:59:56.023Z,100365.59
2023-04-23T04:02:22.804Z,100369.19
2023-04-23T04:04:49.630Z,100366.41
2023-04-23T04:07:16.247Z,100363.53
2023-04-23T04:09:42.772Z,100368.22
2023-04-23T04:12:09.330Z,100362.34
2023-04-23T04:14:35.825Z,100374.44
2023-04-23T04:17:02.308Z,100378.66
2023-04-23T04:19:28.775Z,100378.09
2023-04-23T04:21:55.209Z,100385.59
2023-04-23T04:24:23.143Z,100382.50
2023-04-23T04:26:50.889Z,100385.69
2023-04-23T04:29:17.402Z,100397.63
2023-04-23T04:31:44.134Z,100394.13
2023-04-23T04:34:10.686Z,100394.81
2023-04-23T04:36:37.171Z,100388.38
2023-04-23T04:39:03.774Z,100400.03
2023-04-23T04:41:30.337Z,100397.44
2023-04-23T04:43:56.849Z,100400.56
2023-04-23T04:46:23.383Z,100399.69
2023-04-23T04:48:50.147Z,100404.69
2023-04-23T04:51:16.720Z,100398.81
2023-04-23T04:53:43.510Z,100395.88
2023-04-23T04:56:09.999Z,100396.66
2023-04-23T04:58:36.488Z,100395.91
2023-04-23T05:01:03.179Z,100399.34
2023-04-23T05:03:29.909Z,100402.84
2023-04-23T05:05:56.596Z,100398.03
2023-04-23T05:08:23.146Z,100400.31
2023-04-23T05:10:49.981Z,100401.41
2023-04-23T05:13:17.362Z,100395.84
2023-04-23T05:15:43.857Z,100388.66
2023-04-23T05:18:10.832Z,100390.75
2023-04-23T05:20:37.834Z,100388.81
2023-04-23T05:23:04.404Z,100391.41
2023-04-23T05:25:32.724Z,100385.03
2023-04-23T05:27:59.235Z,100387.22
2023-04-23T05:30:25.733Z,100391.44
2023-04-23T05:32:52.284Z,100385.56
2023-04-23T05:35:18.913Z,100397.59
2023-04-23T05:37:45.440Z,100395.31
2023-04-23T05:40:12.180Z,100388.03
2023-04-23T05:42:38.675Z,100386.84
2023-04-23T05:45:08.054Z,100394.44
2023-04-23T05:47:35.504Z,100392.19
2023-04-23T05:50:02.017Z,100392.09
2023-04-23T05:52:28.500Z,100399.16
2023-04-23T05:54:55.029Z,100397.97
2023-04-23T05:57:21.502Z,100401.47
2023-04-23T05:59:47.993Z,100401.94
2023-04-23T06:02:15.027Z,100394.78
2023-04-23T06:04:41.864Z,100394.00
2023-04-23T06:07:08.742Z,100389.53
2023-04-23T06:09:35.256Z,100385.38
2023-04-23T06:12:02.304Z,100383.75
2023-04-23T06:14:28.687Z,100377.63
2023-04-23T06:16:55.235Z,100371.03
2023-04-23T06:19:21.753Z,100367.53
2023-04-23T06:21:48.260Z,100369.69
2023-04-23T06:24:14.759Z,100383.97
2023-04-23T06:26:41.250Z,100371.03
2023-04-23T06:29:07.747Z,100379.84
2023-04-23T06:31:34.306Z,100373.44
2023-04-23T06:34:00.865Z,100374.78
2023-04-23T06:36:27.354Z,100371.47
2023-04-23T06:38:53.891Z,100370.25
2023-04-23T06:41:20.515Z,100367.09
2023-04-23T06:43:46.996Z,100362.78
2023-04-23T06:46:13.864Z,100364.69
2023-04-23T06:48:40.349Z,100363.44
2023-04-23T06:51:06.985Z,100365.47
2023-04-23T06:53:33.930Z,100358.69
2023-04-23T06:56:00.296Z,100360.91
2023-04-23T06:58:26.774Z,100361.75
2023-04-23T07:00:53.649Z,100357.78
2023-04-23T07:03:20.174Z,100358.94
2023-04-23T07:05:46.700Z,100351.84
2023-04-23T07:08:13.410Z,100352.34
2023-04-23T07:10:40.013Z,100355.84
2023-04-23T07:13:06.494Z,100349.56
2023-04-23T07:15:33.039Z,100349.09
2023-04-23T07:17:59.805Z,100341.44
2023-04-23T07:20:26.333Z,100348.53
2023-04-23T07:22:52.955Z,100343.09
2023-04-23T07:25:19.469Z,100336.66
2023-04-23T07:27:45.970Z,100334.22
2023-04-23T07:30:13.095Z,100323.91
2023-04-23T07:32:39.787Z,100326.06
2023-04-23T07:35:06.862Z,100322.06
2023-04-23T07:37:33.389Z,100320.72
2023-04-23T07:39:59.842Z,100325.69
2023-04-23T07:42:26.341Z,100315.94
2023-04-23T07:44:52.824Z,100321.06
2023-04-23T07:47:19.367Z,100322.91
2023-04-23T07:49:45.890Z,100315.66
2023-04-23T07:52:12.420Z,100311.34
2023-04-23T07:54:39.174Z,100310.97
2023-04-23T07:57:05.675Z,100308.13
2023-04-23T07:59:32.219Z,100310.09
2023-04-23T08:01:58.748Z,100299.94
2023-04-23T08:04:25.642Z,100297.94
2023-04-23T08:06:52.310Z,100298.03
2023-04-23T08:09:18.859Z,100293.81
2023-04-23T08:11:45.341Z,100285.16
2023-04-23T08:14:11.884Z,100298.84
2023-04-23T08:16:39.135Z,100291.59
2023-04-23T08:19:06.458Z,100287.16
2023-04-23T08:21:33.772Z,100288.84
2023-04-23T08:24:00.444Z,100279.31
2023-04-23T08:26:26.803Z,100278.19
2023-04-23T08:28:53.312Z,100281.66
2023-04-23T08:31:26.297Z,100277.41
2023-04-23T08:33:54.251Z,100266.38
2023-04-23T08:36:21.008Z,100269.97
2023-04-23T08:38:47.520Z,100265.31
2023-04-23T08:41:14.851Z,100256.78
2023-04-23T08:43:50.411Z,100256.47
2023-04-23T08:46:18.346Z,100252.78
2023-04-23T08:48:45.572Z,100246.72
2023-04-23T08:51:17.630Z,100252.50
2023-04-23T08:53:45.408Z,100248.63
2023-04-23T08:56:13.701Z,100243.28
2023-04-23T08:58:41.763Z,100243.34
2023-04-23T09:01:09.229Z,100247.41
2023-04-23T09:03:36.696Z,100232.16
2023-04-23T09:06:03.759Z,100226.56
2023-04-23T09:08:30.948Z,100231.91
2023-04-23T09:11:01.016Z,100215.19
2023-04-23T09:13:28.169Z,100229.19
2023-04-23T09:15:54.664Z,100218.41
2023-04-23T09:18:21.045Z,100213.19
2023-04-23T09:20:47.666Z,100214.50
2023-04-23T09:23:15.328Z,100207.41
2023-04-23T09:25:42.235Z,100210.50
2023-04-23T09:28:08.983Z,100198.91
2023-04-23T09:30:45.499Z,100202.72
2023-04-23T09:33:13.218Z,100198.25
2023-04-23T09:35:40.821Z,100192.22
2023-04-23T09:38:07.915Z,100203.56
2023-04-23T09:40:34.512Z,100189.38
2023-04-23T09:43:04.180Z,100191.09
2023-04-23T09:45:31.050Z,100188.28
2023-04-23T09:47:59.052Z,100173.56
2023-04-23T09:50:33.913Z,100177.00
2023-04-23T09:53:00.522Z,100177.81
2023-04-23T09:55:35.046Z,100174.50
2023-04-23T09:58:02.882Z,100170.88
2023-04-23T10:00:33.999Z,100158.97
2023-04-23T10:03:00.896Z,100171.00
2023-04-23T10:05:34.206Z,100158.84
2023-04-23T10:08:12.652Z,100151.81
2023-04-23T10:10:51.401Z,100146.28
2023-04-23T10:13:24.089Z,100139.91
2023-04-23T10:15:51.316Z,100139.81
2023-04-23T10:18:20.374Z,100131.63
2023-04-23T10:20:48.458Z,100133.97
2023-04-23T10:23:17.271Z,100124.47
2023-04-23T10:25:44.950Z,100129.53
2023-04-23T10:28:13.594Z,100123.75
2023-04-23T10:30:42.049Z,100120.16
2023-04-23T10:33:18.874Z,100105.00
2023-04-23T10:35:57.227Z,100104.56
2023-04-23T10:38:25.318Z,100095.50
2023-04-23T10:40:55.287Z,100096.66
2023-04-23T10:43:22.341Z,100094.69
2023-04-23T10:45:49.801Z,100091.81
2023-04-23T10:48:16.286Z,100086.88
2023-04-23T10:50:58.578Z,100093.91
2023-04-23T10:53:31.846Z,100086.97
2023-04-23T10:56:09.029Z,100078.59
2023-04-23T10:58:49.029Z,100071.81
2023-04-23T11:01:17.416Z,100071.28
2023-04-23T11:03:45.153Z,100069.34
2023-04-23T11:06:39.494Z,100062.22
2023-04-23T11:09:28.681Z,100060.81
2023-04-23T11:11:55.410Z,100062.56
2023-04-23T11:14:33.970Z,100061.06
2023-04-23T11:17:00.544Z,100059.94
2023-04-23T11:19:27.030Z,100054.28
2023-04-23T11:21:56.986Z,100045.84
2023-04-23T11:24:24.141Z,100045.38
2023-04-23T11:26:54.126Z,100052.88
2023-04-23T11:29:22.537Z,100035.84
2023-04-23T11:32:01.551Z,100041.75
2023-04-23T11:34:29.475Z,100041.59
2023-04-23T11:36:59.166Z,100038.50
2023-04-23T11:39:25.729Z,100032.28
2023-04-23T11:41:52.592Z,100039.75
2023-04-23T11:44:22.882Z,100035.22
2023-04-23T11:46:50.077Z,100035.81
2023-04-23T11:49:20.525Z,100027.47
2023-04-23T11:51:47.944Z,100033.41
2023-04-23T11:54:14.855Z,100019.97
2023-04-23T11:56:41.984Z,100018.06
2023-04-23T11:59:08.902Z,100021.50
2023-04-23T12:01:49.051Z,100017.88
2023-04-23T12:04:22.402Z,100019.22
2023-04-23T12:06:51.026Z,100013.34
2023-04-23T12:09:20.207Z,100021.22
2023-04-23T12:11:47.513Z,100010.25
2023-04-23T12:14:15.195Z,99998.88
2023-04-23T12:16:44.030Z,99995.72
2023-04-23T12:19:16.009Z,99992.34
2023-04-23T12:21:48.499Z,99978.16
2023-04-23T12:24:15.562Z,99975.00
2023-04-23T12:26:42.722Z,99963.00
2023-04-23T12:29:09.281Z,99968.34
2023-04-23T12:31:37.188Z,99963.06
2023-04-23T12:34:04.530Z,99959.81
2023-04-23T12:36:31.967Z,99950.28
2023-04-23T12:39:23.207Z,99940.81
2023-04-23T12:41:54.967Z,99930.66
2023-04-23T12:44:21.957Z,99943.63
2023-04-23T12:46:57.847Z,99940.66
2023-04-23T12:49:25.891Z,99934.59
2023-04-23T12:51:53.307Z,99941.91
2023-04-23T12:54:20.213Z,99935.59
2023-04-23T12:56:46.706Z,99940.84
2023-04-23T12:59:13.067Z,99936.50
2023-04-23T13:01:39.707Z,99933.75
2023-04-23T13:04:06.449Z,99932.25
2023-04-23T13:06:33.227Z,99931.16
2023-04-23T13:08:59.773Z,99924.00
2023-04-23T13:11:26.128Z,99930.53
2023-04-23T13:13:52.736Z,99928.16
2023-04-23T13:16:19.220Z,99916.34
2023-04-23T13:18:45.793Z,99907.19
2023-04-23T13:21:12.171Z,99916.47
2023-04-23T13:23:38.695Z,99902.59
2023-04-23T13:26:05.127Z,99905.72
2023-04-23T13:28:31.652Z,99901.59
2023-04-23T13:30:58.119Z,99901.28
2023-04-23T13:33:24.608Z,99908.31
2023-04-23T13:35:51.086Z,99899.13
2023-04-23T13:38:17.633Z,99900.53
2023-04-23T13:40:44.023Z,99892.28
2023-04-23T13:43:10.545Z,99893.72
2023-04-23T13:45:37.013Z,99887.22
2023-04-23T13:48:03.626Z,99893.38
2023-04-23T13:50:29.999Z,99892.09
2023-04-23T13:52:56.499Z,99882.13
2023-04-23T13:55:22.922Z,99879.69
2023-04-23T13:57:49.496Z,99877.88
2023-04-23T14:00:16.115Z,99874.31
2023-04-23T14:02:42.796Z,99877.66
2023-04-23T14:05:09.764Z,99872.94
2023-04-23T14:07:36.304Z,99864.38
2023-04-23T14:10:02.690Z,99866.75
2023-04-23T14:12:29.255Z,99867.78
2023-04-23T14:14:55.775Z,99863.72
2023-04-23T14:17:22.266Z,99857.41
2023-04-23T14:19:48.758Z,99858.47
2023-04-23T14:22:15.242Z,99862.31
2023-04-23T14:24:49.542Z,99863.88
2023-04-23T14:27:16.096Z,99852.19
2023-04-23T14:29:46.537Z,99842.22
2023-04-23T14:32:13.027Z,99858.09
2023-04-23T14:34:39.574Z,99850.47
2023-04-23T14:37:05.959Z,99842.22
2023-04-23T14:39:33.851Z,99851.34
2023-04-23T14:42:00.363Z,99855.75
2023-04-23T14:44:26.891Z,99852.81
2023-04-23T14:46:53.435Z,99847.75
2023-04-23T14:49:20.247Z,99844.56
2023-04-23T14:51:48.281Z,99853.47
2023-04-23T14:54:14.813Z,99842.66
2023-04-23T14:56:41.329Z,99849.66
2023-04-23T14:59:07.842Z,99854.72
2023-04-23T15:01:34.465Z,99844.81
2023-04-23T15:04:01.326Z,99851.16
2023-04-23T15:06:27.955Z,99831.88
2023-04-23T15:08:54.476Z,99851.34
2023-04-23T15:11:20.911Z,99839.94
2023-04-23T15:14:01.009Z,99846.47
2023-04-23T15:16:47.273Z,99844.84
2023-04-23T15:19:15.250Z,99856.22
2023-04-23T15:21:41.630Z,99848.16
2023-04-23T15:24:08.150Z,99857.31
2023-04-23T15:26:34.908Z,99848.16
2023-04-23T15:29:01.491Z,99850.47
2023-04-23T15:31:28.046Z,99847.34
2023-04-23T15:33:54.592Z,99842.25
2023-04-23T15:36:21.105Z,99847.38
2023-04-23T15:38:47.595Z,99830.63
2023-04-23T15:41:14.164Z,99849.00
2023-04-23T15:43:40.728Z,99842.44
2023-04-23T15:46:07.290Z,99831.03
2023-04-23T15:48:33.800Z,99837.59
2023-04-23T15:51:00.333Z,99837.56
2023-04-23T15:53:27.824Z,99828.22
2023-04-23T15:55:54.355Z,99828.22
2023-04-23T15:58:21.232Z,99831.09
2023-04-23T16:00:47.804Z,99831.09
2023-04-23T16:03:14.927Z,99834.28
2023-04-23T16:05:42.018Z,99829.53
2023-04-23T16:08:08.987Z,99833.91
2023-04-23T16:10:37.047Z,99832.00
2023-04-23T16:13:10.182Z,99842.06
2023-04-23T16:15:36.580Z,99831.97
2023-04-23T16:18:03.269Z,99834.22
2023-04-23T16:20:29.729Z,99842.63
2023-04-23T16:22:56.246Z,99838.88
2023-04-23T16:25:22.942Z,99838.00
2023-04-23T16:27:49.480Z,99833.72
2023-04-23T16:30:16.104Z,99826.44
2023-04-23T16:32:43.732Z,99827.00
2023-04-23T16:35:10.560Z,99835.38
2023-04-23T16:37:37.031Z,99833.25
2023-04-23T16:40:03.847Z,99826.03
2023-04-23T16:42:30.352Z,99830.81
2023-04-23T16:44:56.836Z,99829.69
2023-04-23T16:47:23.454Z,99836.13
2023-04-23T16:49:50.025Z,99830.38
2023-04-23T16:52:16.558Z,99834.34
2023-04-23T16:54:43.373Z,99833.22
2023-04-23T16:57:10.294Z,99833.47
2023-04-23T16:59:36.844Z,99831.16
2023-04-23T17:02:03.482Z,99826.06
2023-04-23T17:04:30.002Z,99833.78
2023-04-23T17:06:56.564Z,99836.38
2023-04-23T17:09:23.052Z,99832.25
2023-04-23T17:11:49.550Z,99830.75
2023-04-23T17:14:16.026Z,99834.28
2023-04-23T17:16:42.538Z,99837.13
2023-04-23T17:19:09.086Z,99839.69
2023-04-23T17:21:35.619Z,99823.19
2023-04-23T17:24:02.165Z,99836.06
2023-04-23T17:26:28.816Z,99843.75
2023-04-23T17:28:55.266Z,99852.59
2023-04-23T17:31:21.889Z,99843.63
2023-04-23T17:33:48.412Z,99843.63
2023-04-23T17:36:15.066Z,99845.22
2023-04-23T17:38:41.650Z,99853.13
2023-04-23T17:41:08.264Z,99850.28
2023-04-23T17:43:34.926Z,99850.72
2023-04-23T17:46:01.674Z,99856.25
2023-04-23T17:48:28.389Z,99853.41
2023-04-23T17:50:54.933Z,99860.66
2023-04-23T17:53:21.470Z,99861.88
2023-04-23T17:55:48.001Z,99866.69
2023-04-23T17:58:14.503Z,99874.81
2023-04-23T18:00:42.127Z,99882.72
2023-04-23T18:03:09.441Z,99871.69
2023-04-23T18:05:36.348Z,99890.19
2023-04-23T18:08:03.106Z,99887.34
2023-04-23T18:10:29.832Z,99878.09
2023-04-23T18:12:56.476Z,99890.28
2023-04-23T18:15:23.698Z,99891.31
2023-04-23T18:17:50.334Z,99888.63
2023-04-23T18:20:16.990Z,99894.25
2023-04-23T18:22:43.548Z,99882.50
2023-04-23T18:25:10.177Z,99906.03
2023-04-23T18:27:36.694Z,99905.91
2023-04-23T18:30:03.578Z,99907.25
2023-04-23T18:32:35.158Z,99906.38
2023-04-23T18:35:02.841Z,99903.00
2023-04-23T18:37:47.557Z,99900.75
2023-04-23T18:40:14.249Z,99896.88
2023-04-23T18:42:40.754Z,99900.97
2023-04-23T18:45:07.735Z,99909.31
2023-04-23T18:47:51.029Z,99907.47
2023-04-23T18:50:31.070Z,99906.59
2023-04-23T18:52:57.623Z,99906.25
2023-04-23T18:55:24.095Z,99906.06
2023-04-23T18:57:50.614Z,99912.75
2023-04-23T19:00:17.232Z,99921.59
2023-04-23T19:02:43.888Z,99919.00
2023-04-23T19:05:11.259Z,99899.63
2023-04-23T19:07:37.894Z,99924.16
2023-04-23T19:10:04.652Z,99919.19
2023-04-23T19:12:31.171Z,99921.09
2023-04-23T19:14:57.631Z,99920.06
2023-04-23T19:17:24.270Z,99913.59
2023-04-23T19:19:50.869Z,99926.38
2023-04-23T19:22:17.426Z,99932.31
2023-04-23T19:24:43.893Z,99936.44
2023-04-23T19:27:10.442Z,99932.16
2023-04-23T19:29:36.918Z,99930.97
2023-04-23T19:32:03.419Z,99940.31
2023-04-23T19:34:29.959Z,99945.13
2023-04-23T19:36:56.446Z,99948.66
2023-04-23T19:39:22.901Z,99948.16
2023-04-23T19:41:49.607Z,99956.31
2023-04-23T19:44:16.158Z,99949.19
2023-04-23T19:46:42.665Z,99948.84
2023-04-23T19:49:09.193Z,99948.84
2023-04-23T19:51:36.564Z,99960.41
2023-04-23T19:54:03.104Z,99958.50
2023-04-23T19:56:29.664Z,99956.94
2023-04-23T19:58:56.266Z,99966.78
2023-04-23T20:01:22.841Z,99965.03
2023-04-23T20:03:49.463Z,99964.19
2023-04-23T20:06:16.462Z,99963.91
2023-04-23T20:08:42.966Z,99973.06
2023-04-23T20:11:09.916Z,99966.34
2023-04-23T20:13:36.472Z,99972.88
2023-04-23T20:16:03.084Z,99975.22
2023-04-23T20:18:29.636Z,99982.31
2023-04-23T20:20:56.133Z,99983.63
2023-04-23T20:23:22.646Z,99979.84
2023-04-23T20:25:49.304Z,99988.38
2023-04-23T20:28:15.837Z,99986.47
2023-04-23T20:30:42.427Z,99980.50
2023-04-23T20:33:09.318Z,99991.38
2023-04-23T20:35:35.884Z,99992.50
2023-04-23T20:38:02.457Z,99983.31
2023-04-23T20:40:29.948Z,99988.44
2023-04-23T20:42:56.427Z,99992.94
2023-04-23T20:45:22.910Z,99992.75
2023-04-23T20:47:49.442Z,99989.34
2023-04-23T20:50:16.146Z,99993.00
2023-04-23T20:52:42.852Z,99995.81
2023-04-23T20:55:09.696Z,99990.38
2023-04-23T20:57:36.357Z,99999.13
2023-04-23T21:00:03.752Z,99996.09
2023-04-23T21:02:30.364Z,99995.72
2023-04-23T21:04:56.956Z,99996.25
2023-04-23T21:07:23.447Z,100002.00
2023-04-23T21:09:49.983Z,100009.34
2023-04-23T21:12:16.519Z,100004.25
2023-04-23T21:14:43.212Z,100013.16
2023-04-23T21:17:09.702Z,100014.94
2023-04-23T21:19:36.192Z,100004.13
2023-04-23T21:22:02.643Z,100005.59
2023-04-23T21:24:29.140Z,100000.63
2023-04-23T21:26:55.679Z,99995.19
2023-04-23T21:29:22.178Z,99989.22
2023-04-23T21:31:51.876Z,100002.38
2023-04-23T21:34:18.527Z,100009.66
2023-04-23T21:36:45.640Z,100013.81
2023-04-23T21:39:13.230Z,100008.13
2023-04-23T21:41:40.074Z,100006.69
2023-04-23T21:44:06.706Z,100002.72
2023-04-23T21:46:33.437Z,99990.88
2023-04-23T21:49:00.044Z,100001.88
2023-04-23T21:51:26.588Z,100005.31
2023-04-23T21:53:53.147Z,100009.56
2023-04-23T21:56:20.098Z,100021.94
2023-04-23T21:58:46.588Z,100015.00
2023-04-23T22:01:13.186Z,100015.84
2023-04-23T22:03:40.104Z,100005.31
2023-04-23T22:06:06.986Z,99997.84
2023-04-23T22:08:33.838Z,99999.88
2023-04-23T22:11:00.339Z,100001.19
2023-04-23T22:13:26.870Z,100009.16
2023-04-23T22:15:53.417Z,100007.19
2023-04-23T22:18:19.908Z,100003.06
2023-04-23T22:20:46.462Z,100002.66
2023-04-23T22:23:12.997Z,99994.13
2023-04-23T22:25:39.487Z,99983.00
2023-04-23T22:28:06.497Z,99975.19
2023-04-23T22:30:33.170Z,99978.34
2023-04-23T22:32:59.754Z,99974.22
2023-04-23T22:35:26.432Z,99973.38
2023-04-23T22:37:53.409Z,99961.25
2023-04-23T22:40:19.985Z,99945.47
2023-04-23T22:42:46.532Z,99951.16
2023-04-23T22:45:13.080Z,99950.88
2023-04-23T22:47:39.673Z,99957.16
2023-04-23T22:50:06.685Z,99964.56
2023-04-23T22:52:33.193Z,99994.34
2023-04-23T22:54:59.648Z,99996.03
2023-04-23T22:57:26.363Z,100003.72
2023-04-23T22:59:52.881Z,100011.00
2023-04-23T23:02:19.562Z,100009.28
2023-04-23T23:04:46.182Z,100014.28
2023-04-23T23:07:12.723Z,100011.28
2023-04-23T23:09:39.217Z,100005.25
2023-04-23T23:12:05.751Z,100020.22
2023-04-23T23:14:32.445Z,100028.38
2023-04-23T23:16:59.223Z,100043.91
2023-04-23T23:19:25.872Z,100040.63
2023-04-23T23:21:52.469Z,100057.19
2023-04-23T23:24:19.138Z,100054.78
2023-04-23T23:26:45.709Z,100050.03
2023-04-23T23:29:12.283Z,100050.91
2023-04-23T23:31:38.866Z,100036.22
2023-04-23T23:34:05.631Z,100013.59
2023-04-23T23:36:32.499Z,99996.22
2023-04-23T23:38:59.105Z,99992.97
2023-04-23T23:41:25.659Z,99969.06
2023-04-23T23:43:52.899Z,99947.50
2023-04-23T23:46:19.855Z,99954.66
2023-04-23T23:48:46.937Z,99960.06
2023-04-23T23:51:14.272Z,99978.28
2023-04-23T23:53:40.749Z,99986.41
2023-04-23T23:56:07.273Z,100001.69
2023-04-23T23:58:33.754Z,100006.25
